sensor_id;sensor_type;location;lat;lon;timestamp;temperature;humidity
23010;DHT22;11671;49.990;8.028;2023-08-12T07:38:53;23.30;99.90
23010;DHT22;11671;49.990;8.028;2023-08-12T07:41:18;22.90;99.90
23010;DHT22;11671;49.990;8.028;2023-08-12T07:43:44;22.80;99.90
23010;DHT22;11671;49.990;8.028;2023-08-12T07:46:09;22.80;99.90
23010;DHT22;11671;49.990;8.028;2023-08-12T07:48:35;22.90;99.90
23010;DHT22;11671;49.990;8.028;2023-08-12T07:51:01;23.20;99.90
23010;DHT22;11671;49.990;8.028;2023-08-12T07:53:26;23.40;99.90
23010;DHT22;11671;49.990;8.028;2023-08-12T07:55:52;23.70;99.90
23010;DHT22;11671;49.990;8.028;2023-08-12T07:58:18;24.00;99.90
23010;DHT22;11671;49.990;8.028;2023-08-12T08:00:44;24.20;99.90
23010;DHT22;11671;49.990;8.028;2023-08-12T08:03:09;24.50;99.90
23010;DHT22;11671;49.990;8.028;2023-08-12T08:05:35;24.80;99.90
23010;DHT22;11671;49.990;8.028;2023-08-12T08:08:01;24.80;99.90
23010;DHT22;11671;49.990;8.028;2023-08-12T08:10:26;24.80;99.90
23010;DHT22;11671;49.990;8.028;2023-08-12T08:12:52;25.00;99.90
23010;DHT22;11671;49.990;8.028;2023-08-12T08:15:18;25.40;99.90
23010;DHT22;11671;49.990;8.028;2023-08-12T08:17:44;25.80;99.90
23010;DHT22;11671;49.990;8.028;2023-08-12T08:20:09;26.00;99.90
23010;DHT22;11671;49.990;8.028;2023-08-12T08:22:36;26.00;99.90
23010;DHT22;11671;49.990;8.028;2023-08-12T08:25:02;26.00;99.90
23010;DHT22;11671;49.990;8.028;2023-08-12T08:27:28;25.80;99.90
23010;DHT22;11671;49.990;8.028;2023-08-12T08:29:53;25.50;99.90
23010;DHT22;11671;49.990;8.028;2023-08-12T08:32:19;25.30;99.90
23010;DHT22;11671;49.990;8.028;2023-08-12T08:34:45;25.00;99.90
23010;DHT22;11671;49.990;8.028;2023-08-12T08:37:10;24.80;99.90
23010;DHT22;11671;49.990;8.028;2023-08-12T08:39:36;24.80;99.90
23010;DHT22;11671;49.990;8.028;2023-08-12T08:42:03;25.00;99.90
23010;DHT22;11671;49.990;8.028;2023-08-12T08:44:33;25.10;99.90
23010;DHT22;11671;49.990;8.028;2023-08-12T08:46:59;25.10;99.90
23010;DHT22;11671;49.990;8.028;2023-08-12T08:49:26;25.00;99.90
23010;DHT22;11671;49.990;8.028;2023-08-12T08:51:53;25.20;99.90
23010;DHT22;11671;49.990;8.028;2023-08-12T08:54:19;25.20;99.90
23010;DHT22;11671;49.990;8.028;2023-08-12T08:56:46;25.10;99.90
23010;DHT22;11671;49.990;8.028;2023-08-12T08:59:13;25.30;99.90
23010;DHT22;11671;49.990;8.028;2023-08-12T09:01:40;25.30;99.90
23010;DHT22;11671;49.990;8.028;2023-08-12T09:04:07;25.10;99.90
23010;DHT22;11671;49.990;8.028;2023-08-12T09:06:35;25.10;99.90
23010;DHT22;11671;49.990;8.028;2023-08-12T09:09:02;25.00;99.90
23010;DHT22;11671;49.990;8.028;2023-08-12T09:11:29;25.00;99.90
23010;DHT22;11671;49.990;8.028;2023-08-12T09:13:55;25.30;99.90
23010;DHT22;11671;49.990;8.028;2023-08-12T09:16:21;25.70;99.90
23010;DHT22;11671;49.990;8.028;2023-08-12T09:18:46;25.90;99.90
23010;DHT22;11671;49.990;8.028;2023-08-12T09:21:12;26.20;99.90
23010;DHT22;11671;49.990;8.028;2023-08-12T09:23:39;26.50;99.90
23010;DHT22;11671;49.990;8.028;2023-08-12T09:26:17;26.50;99.90
23010;DHT22;11671;49.990;8.028;2023-08-12T09:28:43;26.70;99.90
23010;DHT22;11671;49.990;8.028;2023-08-12T09:31:30;26.60;99.90
23010;DHT22;11671;49.990;8.028;2023-08-12T09:34:06;26.50;99.90
23010;DHT22;11671;49.990;8.028;2023-08-12T09:36:33;26.40;99.90
23010;DHT22;11671;49.990;8.028;2023-08-12T09:38:59;26.50;99.90
23010;DHT22;11671;49.990;8.028;2023-08-12T09:41:26;26.60;99.90
23010;DHT22;11671;49.990;8.028;2023-08-12T09:43:52;26.70;99.90
23010;DHT22;11671;49.990;8.028;2023-08-12T09:46:21;26.80;99.90
23010;DHT22;11671;49.990;8.028;2023-08-12T09:48:47;26.80;99.90
23010;DHT22;11671;49.990;8.028;2023-08-12T09:51:14;26.60;99.90
23010;DHT22;11671;49.990;8.028;2023-08-12T09:53:42;26.40;99.90
23010;DHT22;11671;49.990;8.028;2023-08-12T09:56:08;26.30;99.90
23010;DHT22;11671;49.990;8.028;2023-08-12T09:58:37;26.10;99.90
23010;DHT22;11671;49.990;8.028;2023-08-12T10:01:05;26.00;99.90
23010;DHT22;11671;49.990;8.028;2023-08-12T10:03:33;25.80;99.90
23010;DHT22;11671;49.990;8.028;2023-08-12T10:06:01;25.70;99.90
23010;DHT22;11671;49.990;8.028;2023-08-12T10:08:29;25.60;99.90
23010;DHT22;11671;49.990;8.028;2023-08-12T10:10:55;25.50;99.90
23010;DHT22;11671;49.990;8.028;2023-08-12T10:13:21;25.40;99.90
23010;DHT22;11671;49.990;8.028;2023-08-12T10:15:48;25.20;99.90
23010;DHT22;11671;49.990;8.028;2023-08-12T10:18:15;25.10;99.90
23010;DHT22;11671;49.990;8.028;2023-08-12T10:20:42;24.90;99.90
23010;DHT22;11671;49.990;8.028;2023-08-12T10:23:12;24.80;99.90
23010;DHT22;11671;49.990;8.028;2023-08-12T10:25:41;24.60;99.90
23010;DHT22;11671;49.990;8.028;2023-08-12T10:28:08;24.70;99.90
23010;DHT22;11671;49.990;8.028;2023-08-12T10:30:34;24.70;99.90
23010;DHT22;11671;49.990;8.028;2023-08-12T10:33:00;24.80;99.90
23010;DHT22;11671;49.990;8.028;2023-08-12T10:35:44;24.80;99.90
23010;DHT22;11671;49.990;8.028;2023-08-12T10:38:13;24.90;99.90
23010;DHT22;11671;49.990;8.028;2023-08-12T10:40:39;24.90;99.90
23010;DHT22;11671;49.990;8.028;2023-08-12T10:43:04;25.00;99.90
23010;DHT22;11671;49.990;8.028;2023-08-12T10:50:34;25.30;99.90
23010;DHT22;11671;49.990;8.028;2023-08-12T10:55:50;25.50;99.90
23010;DHT22;11671;49.990;8.028;2023-08-12T10:58:36;25.80;99.90
23010;DHT22;11671;49.990;8.028;2023-08-12T11:01:13;26.00;99.90
23010;DHT22;11671;49.990;8.028;2023-08-12T11:03:43;26.30;99.90
23010;DHT22;11671;49.990;8.028;2023-08-12T11:06:10;26.40;99.90
23010;DHT22;11671;49.990;8.028;2023-08-12T11:08:36;26.40;99.90
23010;DHT22;11671;49.990;8.028;2023-08-12T11:11:02;26.60;99.90
23010;DHT22;11671;49.990;8.028;2023-08-12T11:13:28;27.20;99.90
23010;DHT22;11671;49.990;8.028;2023-08-12T11:16:06;27.50;99.90
23010;DHT22;11671;49.990;8.028;2023-08-12T11:18:32;27.90;99.90
23010;DHT22;11671;49.990;8.028;2023-08-12T11:20:58;27.90;99.90
23010;DHT22;11671;49.990;8.028;2023-08-12T11:23:24;27.50;99.90
23010;DHT22;11671;49.990;8.028;2023-08-12T11:25:50;27.10;99.90
23010;DHT22;11671;49.990;8.028;2023-08-12T11:28:18;27.20;99.90
23010;DHT22;11671;49.990;8.028;2023-08-12T11:30:45;27.30;99.90
23010;DHT22;11671;49.990;8.028;2023-08-12T11:33:10;26.80;99.90
23010;DHT22;11671;49.990;8.028;2023-08-12T11:35:36;26.50;99.90
23010;DHT22;11671;49.990;8.028;2023-08-12T11:38:05;26.70;99.90
23010;DHT22;11671;49.990;8.028;2023-08-12T11:40:32;27.10;99.90
23010;DHT22;11671;49.990;8.028;2023-08-12T11:42:57;27.20;99.90
23010;DHT22;11671;49.990;8.028;2023-08-12T11:45:24;27.50;99.90
23010;DHT22;11671;49.990;8.028;2023-08-12T11:47:51;27.80;99.90
23010;DHT22;11671;49.990;8.028;2023-08-12T11:50:25;27.80;99.90
23010;DHT22;11671;49.990;8.028;2023-08-12T11:52:52;27.90;99.90
23010;DHT22;11671;49.990;8.028;2023-08-12T11:55:19;27.90;99.90
23010;DHT22;11671;49.990;8.028;2023-08-12T11:57:45;28.00;99.90
23010;DHT22;11671;49.990;8.028;2023-08-12T12:00:14;28.30;99.90
23010;DHT22;11671;49.990;8.028;2023-08-12T12:03:00;28.50;99.90
23010;DHT22;11671;49.990;8.028;2023-08-12T12:05:29;28.40;99.90
23010;DHT22;11671;49.990;8.028;2023-08-12T12:08:00;28.30;99.90
23010;DHT22;11671;49.990;8.028;2023-08-12T12:10:30;28.30;99.90
23010;DHT22;11671;49.990;8.028;2023-08-12T12:12:56;28.00;99.90
23010;DHT22;11671;49.990;8.028;2023-08-12T12:15:22;27.90;99.90
23010;DHT22;11671;49.990;8.028;2023-08-12T12:17:52;27.70;99.90
23010;DHT22;11671;49.990;8.028;2023-08-12T12:20:18;27.60;99.90
23010;DHT22;11671;49.990;8.028;2023-08-12T12:22:44;27.50;99.90
23010;DHT22;11671;49.990;8.028;2023-08-12T12:25:12;27.50;99.90
23010;DHT22;11671;49.990;8.028;2023-08-12T12:27:39;27.50;99.90
23010;DHT22;11671;49.990;8.028;2023-08-12T12:30:10;27.60;99.90
23010;DHT22;11671;49.990;8.028;2023-08-12T12:32:36;27.80;99.90
23010;DHT22;11671;49.990;8.028;2023-08-12T12:35:02;27.80;99.90
23010;DHT22;11671;49.990;8.028;2023-08-12T12:37:29;28.00;99.90
23010;DHT22;11671;49.990;8.028;2023-08-12T12:39:55;28.20;99.90
23010;DHT22;11671;49.990;8.028;2023-08-12T12:42:22;28.50;99.90
23010;DHT22;11671;49.990;8.028;2023-08-12T12:44:48;28.40;99.90
23010;DHT22;11671;49.990;8.028;2023-08-12T12:47:13;28.60;99.90
23010;DHT22;11671;49.990;8.028;2023-08-12T12:49:39;28.60;99.90
23010;DHT22;11671;49.990;8.028;2023-08-12T12:52:06;28.60;99.90
23010;DHT22;11671;49.990;8.028;2023-08-12T12:54:32;28.40;99.90
23010;DHT22;11671;49.990;8.028;2023-08-12T12:56:58;28.30;99.90
23010;DHT22;11671;49.990;8.028;2023-08-12T13:01:54;29.00;99.90
23010;DHT22;11671;49.990;8.028;2023-08-12T13:06:45;29.60;99.90
23010;DHT22;11671;49.990;8.028;2023-08-12T13:09:13;29.50;99.90
23010;DHT22;11671;49.990;8.028;2023-08-12T13:11:38;29.50;99.90
23010;DHT22;11671;49.990;8.028;2023-08-12T13:14:05;29.50;99.90
23010;DHT22;11671;49.990;8.028;2023-08-12T13:16:31;29.30;99.90
23010;DHT22;11671;49.990;8.028;2023-08-12T13:18:57;29.30;99.90
23010;DHT22;11671;49.990;8.028;2023-08-12T13:21:26;29.40;99.90
23010;DHT22;11671;49.990;8.028;2023-08-12T13:23:54;29.80;99.90
23010;DHT22;11671;49.990;8.028;2023-08-12T13:26:22;30.10;99.90
23010;DHT22;11671;49.990;8.028;2023-08-12T13:28:48;30.20;99.90
23010;DHT22;11671;49.990;8.028;2023-08-12T13:31:14;30.30;99.90
23010;DHT22;11671;49.990;8.028;2023-08-12T13:33:40;30.20;99.90
23010;DHT22;11671;49.990;8.028;2023-08-12T13:36:06;30.30;99.90
23010;DHT22;11671;49.990;8.028;2023-08-12T13:38:31;30.20;99.90
23010;DHT22;11671;49.990;8.028;2023-08-12T13:40:57;30.00;99.90
23010;DHT22;11671;49.990;8.028;2023-08-12T13:43:23;29.90;99.90
23010;DHT22;11671;49.990;8.028;2023-08-12T13:45:50;29.90;99.90
23010;DHT22;11671;49.990;8.028;2023-08-12T13:48:18;29.80;99.90
23010;DHT22;11671;49.990;8.028;2023-08-12T13:50:44;30.10;99.90
23010;DHT22;11671;49.990;8.028;2023-08-12T13:53:10;30.40;99.90
23010;DHT22;11671;49.990;8.028;2023-08-12T13:55:36;30.50;99.90
23010;DHT22;11671;49.990;8.028;2023-08-12T13:58:06;30.40;99.90
23010;DHT22;11671;49.990;8.028;2023-08-12T14:00:33;30.10;99.90
23010;DHT22;11671;49.990;8.028;2023-08-12T14:03:00;29.90;99.90
23010;DHT22;11671;49.990;8.028;2023-08-12T14:05:26;29.70;99.90
23010;DHT22;11671;49.990;8.028;2023-08-12T14:07:52;29.70;99.90
23010;DHT22;11671;49.990;8.028;2023-08-12T14:10:19;29.90;99.90
23010;DHT22;11671;49.990;8.028;2023-08-12T14:12:44;30.00;99.90
23010;DHT22;11671;49.990;8.028;2023-08-12T14:15:10;29.90;99.90
23010;DHT22;11671;49.990;8.028;2023-08-12T14:17:36;29.80;99.90
23010;DHT22;11671;49.990;8.028;2023-08-12T14:20:02;29.50;99.90
23010;DHT22;11671;49.990;8.028;2023-08-12T14:22:30;29.50;99.90
23010;DHT22;11671;49.990;8.028;2023-08-12T14:24:56;29.40;99.90
23010;DHT22;11671;49.990;8.028;2023-08-12T14:27:21;29.40;99.90
23010;DHT22;11671;49.990;8.028;2023-08-12T14:29:47;29.20;99.90
23010;DHT22;11671;49.990;8.028;2023-08-12T14:32:13;29.20;99.90
23010;DHT22;11671;49.990;8.028;2023-08-12T14:34:41;29.10;99.90
23010;DHT22;11671;49.990;8.028;2023-08-12T14:37:11;29.10;99.90
23010;DHT22;11671;49.990;8.028;2023-08-12T14:39:36;29.00;99.90
23010;DHT22;11671;49.990;8.028;2023-08-12T14:42:02;28.90;99.90
23010;DHT22;11671;49.990;8.028;2023-08-12T14:44:29;28.80;99.90
23010;DHT22;11671;49.990;8.028;2023-08-12T14:46:58;28.70;99.90
23010;DHT22;11671;49.990;8.028;2023-08-12T14:49:24;28.60;99.90
23010;DHT22;11671;49.990;8.028;2023-08-12T14:51:50;28.60;99.90
23010;DHT22;11671;49.990;8.028;2023-08-12T14:54:15;28.50;99.90
23010;DHT22;11671;49.990;8.028;2023-08-12T14:56:41;28.30;99.90
23010;DHT22;11671;49.990;8.028;2023-08-12T14:59:07;28.10;99.90
23010;DHT22;11671;49.990;8.028;2023-08-12T15:01:32;28.10;99.90
23010;DHT22;11671;49.990;8.028;2023-08-12T15:03:58;28.00;99.90
23010;DHT22;11671;49.990;8.028;2023-08-12T15:06:24;28.00;99.90
23010;DHT22;11671;49.990;8.028;2023-08-12T15:08:49;28.10;99.90
23010;DHT22;11671;49.990;8.028;2023-08-12T15:11:15;28.10;99.90
23010;DHT22;11671;49.990;8.028;2023-08-12T15:13:41;28.10;99.90
23010;DHT22;11671;49.990;8.028;2023-08-12T15:16:07;28.10;99.90
23010;DHT22;11671;49.990;8.028;2023-08-12T15:18:32;28.10;99.90
23010;DHT22;11671;49.990;8.028;2023-08-12T15:20:58;27.90;99.90
23010;DHT22;11671;49.990;8.028;2023-08-12T15:23:23;27.90;99.90
23010;DHT22;11671;49.990;8.028;2023-08-12T15:25:49;27.90;99.90
23010;DHT22;11671;49.990;8.028;2023-08-12T15:28:15;28.00;99.90
23010;DHT22;11671;49.990;8.028;2023-08-12T15:30:41;28.60;99.90
23010;DHT22;11671;49.990;8.028;2023-08-12T15:33:07;29.00;99.90
23010;DHT22;11671;49.990;8.028;2023-08-12T15:35:33;28.90;99.90
23010;DHT22;11671;49.990;8.028;2023-08-12T15:37:58;28.80;99.90
23010;DHT22;11671;49.990;8.028;2023-08-12T15:40:25;28.60;99.90
23010;DHT22;11671;49.990;8.028;2023-08-12T15:42:51;28.40;99.90
23010;DHT22;11671;49.990;8.028;2023-08-12T15:45:17;28.30;99.90
23010;DHT22;11671;49.990;8.028;2023-08-12T15:47:42;28.20;99.90
23010;DHT22;11671;49.990;8.028;2023-08-12T15:50:08;28.10;99.90
23010;DHT22;11671;49.990;8.028;2023-08-12T15:52:34;28.00;99.90
23010;DHT22;11671;49.990;8.028;2023-08-12T15:55:04;28.00;99.90
23010;DHT22;11671;49.990;8.028;2023-08-12T15:57:30;28.10;99.90
23010;DHT22;11671;49.990;8.028;2023-08-12T15:59:56;28.10;99.90
23010;DHT22;11671;49.990;8.028;2023-08-12T16:02:21;28.20;99.90
23010;DHT22;11671;49.990;8.028;2023-08-12T16:04:47;28.20;99.90
23010;DHT22;11671;49.990;8.028;2023-08-12T16:07:13;28.50;99.90
23010;DHT22;11671;49.990;8.028;2023-08-12T16:09:39;28.50;99.90
23010;DHT22;11671;49.990;8.028;2023-08-12T16:12:04;28.60;99.90
23010;DHT22;11671;49.990;8.028;2023-08-12T16:14:30;28.60;99.90
23010;DHT22;11671;49.990;8.028;2023-08-12T16:16:56;28.50;99.90
23010;DHT22;11671;49.990;8.028;2023-08-12T16:19:21;28.60;99.90
23010;DHT22;11671;49.990;8.028;2023-08-12T16:21:47;28.60;99.90
23010;DHT22;11671;49.990;8.028;2023-08-12T16:24:12;28.50;99.90
23010;DHT22;11671;49.990;8.028;2023-08-12T16:26:38;28.30;99.90
23010;DHT22;11671;49.990;8.028;2023-08-12T16:29:03;28.10;99.90
23010;DHT22;11671;49.990;8.028;2023-08-12T16:31:30;27.90;99.90
23010;DHT22;11671;49.990;8.028;2023-08-12T16:33:56;27.70;99.90
23010;DHT22;11671;49.990;8.028;2023-08-12T16:36:21;27.40;99.90
23010;DHT22;11671;49.990;8.028;2023-08-12T16:38:47;27.20;99.90
23010;DHT22;11671;49.990;8.028;2023-08-12T16:41:13;27.00;99.90
23010;DHT22;11671;49.990;8.028;2023-08-12T16:43:42;26.70;99.90
23010;DHT22;11671;49.990;8.028;2023-08-12T16:46:07;26.70;99.90
23010;DHT22;11671;49.990;8.028;2023-08-12T16:48:33;26.80;99.90
23010;DHT22;11671;49.990;8.028;2023-08-12T16:50:59;27.10;99.90
23010;DHT22;11671;49.990;8.028;2023-08-12T16:53:24;27.40;99.90
23010;DHT22;11671;49.990;8.028;2023-08-12T16:55:50;27.80;99.90
23010;DHT22;11671;49.990;8.028;2023-08-12T16:58:16;28.00;99.90
23010;DHT22;11671;49.990;8.028;2023-08-12T17:00:41;28.30;99.90
23010;DHT22;11671;49.990;8.028;2023-08-12T17:03:07;28.60;99.90
23010;DHT22;11671;49.990;8.028;2023-08-12T17:05:33;28.30;99.90
23010;DHT22;11671;49.990;8.028;2023-08-12T17:07:59;28.00;99.90
23010;DHT22;11671;49.990;8.028;2023-08-12T17:10:25;27.90;99.90
23010;DHT22;11671;49.990;8.028;2023-08-12T17:12:51;27.80;99.90
23010;DHT22;11671;49.990;8.028;2023-08-12T17:15:16;27.60;99.90
23010;DHT22;11671;49.990;8.028;2023-08-12T17:17:42;27.80;99.90
23010;DHT22;11671;49.990;8.028;2023-08-12T17:20:08;27.90;99.90
23010;DHT22;11671;49.990;8.028;2023-08-12T17:22:33;27.90;99.90
23010;DHT22;11671;49.990;8.028;2023-08-12T17:25:01;27.90;99.90
23010;DHT22;11671;49.990;8.028;2023-08-12T17:27:27;27.80;99.90
23010;DHT22;11671;49.990;8.028;2023-08-12T17:29:53;27.80;99.90
23010;DHT22;11671;49.990;8.028;2023-08-12T17:32:18;27.70;99.90
23010;DHT22;11671;49.990;8.028;2023-08-12T17:34:44;27.50;99.90
23010;DHT22;11671;49.990;8.028;2023-08-12T17:37:09;27.30;99.90
23010;DHT22;11671;49.990;8.028;2023-08-12T17:39:35;27.10;99.90
23010;DHT22;11671;49.990;8.028;2023-08-12T17:42:01;27.00;99.90
23010;DHT22;11671;49.990;8.028;2023-08-12T17:44:26;26.90;99.90
23010;DHT22;11671;49.990;8.028;2023-08-12T17:46:52;26.90;99.90
23010;DHT22;11671;49.990;8.028;2023-08-12T17:49:17;26.90;99.90
23010;DHT22;11671;49.990;8.028;2023-08-12T17:51:43;26.90;99.90
23010;DHT22;11671;49.990;8.028;2023-08-12T17:54:09;26.90;99.90
23010;DHT22;11671;49.990;8.028;2023-08-12T17:56:34;27.00;99.90
23010;DHT22;11671;49.990;8.028;2023-08-12T17:59:00;26.90;99.90
23010;DHT22;11671;49.990;8.028;2023-08-12T18:01:26;26.80;99.90
23010;DHT22;11671;49.990;8.028;2023-08-12T18:03:52;26.70;99.90
23010;DHT22;11671;49.990;8.028;2023-08-12T18:06:17;26.70;99.90
23010;DHT22;11671;49.990;8.028;2023-08-12T18:08:43;26.60;99.90
23010;DHT22;11671;49.990;8.028;2023-08-12T18:11:09;26.60;99.90
23010;DHT22;11671;49.990;8.028;2023-08-12T18:13:34;26.60;99.90
23010;DHT22;11671;49.990;8.028;2023-08-12T18:16:00;26.30;99.90
23010;DHT22;11671;49.990;8.028;2023-08-12T18:18:26;26.20;99.90
23010;DHT22;11671;49.990;8.028;2023-08-12T18:20:51;26.20;99.90
23010;DHT22;11671;49.990;8.028;2023-08-12T18:23:17;26.10;99.90
23010;DHT22;11671;49.990;8.028;2023-08-12T18:25:43;26.10;99.90
23010;DHT22;11671;49.990;8.028;2023-08-12T18:28:08;26.00;99.90
23010;DHT22;11671;49.990;8.028;2023-08-12T18:30:34;26.00;99.90
23010;DHT22;11671;49.990;8.028;2023-08-12T18:32:59;25.80;99.90
23010;DHT22;11671;49.990;8.028;2023-08-12T18:35:28;25.80;99.90
23010;DHT22;11671;49.990;8.028;2023-08-12T18:37:54;25.60;99.90
23010;DHT22;11671;49.990;8.028;2023-08-12T18:40:19;25.60;99.90
23010;DHT22;11671;49.990;8.028;2023-08-12T18:42:45;25.50;99.90
23010;DHT22;11671;49.990;8.028;2023-08-12T18:45:11;25.30;99.90
23010;DHT22;11671;49.990;8.028;2023-08-12T18:47:36;25.20;99.90
23010;DHT22;11671;49.990;8.028;2023-08-12T18:50:02;25.10;99.90
23010;DHT22;11671;49.990;8.028;2023-08-12T18:52:28;25.10;99.90
23010;DHT22;11671;49.990;8.028;2023-08-12T18:54:54;25.00;99.90
23010;DHT22;11671;49.990;8.028;2023-08-12T18:57:19;24.90;99.90
23010;DHT22;11671;49.990;8.028;2023-08-12T18:59:45;24.80;99.90
23010;DHT22;11671;49.990;8.028;2023-08-12T19:02:10;24.70;99.90
23010;DHT22;11671;49.990;8.028;2023-08-12T19:04:36;24.60;99.90
23010;DHT22;11671;49.990;8.028;2023-08-12T19:07:02;24.60;99.90
23010;DHT22;11671;49.990;8.028;2023-08-12T19:09:27;24.50;99.90
23010;DHT22;11671;49.990;8.028;2023-08-12T19:11:53;24.50;99.90
23010;DHT22;11671;49.990;8.028;2023-08-12T19:14:19;24.60;99.90
23010;DHT22;11671;49.990;8.028;2023-08-12T19:16:44;24.50;99.90
23010;DHT22;11671;49.990;8.028;2023-08-12T19:19:10;24.50;99.90
23010;DHT22;11671;49.990;8.028;2023-08-12T19:21:36;24.50;99.90
23010;DHT22;11671;49.990;8.028;2023-08-12T19:24:02;24.40;99.90
23010;DHT22;11671;49.990;8.028;2023-08-12T19:26:29;24.40;99.90
23010;DHT22;11671;49.990;8.028;2023-08-12T19:28:54;24.40;99.90
23010;DHT22;11671;49.990;8.028;2023-08-12T19:31:20;24.30;99.90
23010;DHT22;11671;49.990;8.028;2023-08-12T19:33:45;24.20;99.90
23010;DHT22;11671;49.990;8.028;2023-08-12T19:36:11;24.20;99.90
23010;DHT22;11671;49.990;8.028;2023-08-12T19:38:37;24.20;99.90
23010;DHT22;11671;49.990;8.028;2023-08-12T19:41:02;24.20;99.90
23010;DHT22;11671;49.990;8.028;2023-08-12T19:43:29;24.10;99.90
23010;DHT22;11671;49.990;8.028;2023-08-12T19:45:56;24.00;99.90
23010;DHT22;11671;49.990;8.028;2023-08-12T19:48:22;24.00;99.90
23010;DHT22;11671;49.990;8.028;2023-08-12T19:50:47;23.90;99.90
23010;DHT22;11671;49.990;8.028;2023-08-12T19:53:15;24.00;99.90
23010;DHT22;11671;49.990;8.028;2023-08-12T19:55:40;23.90;99.90
23010;DHT22;11671;49.990;8.028;2023-08-12T19:58:06;23.80;99.90
23010;DHT22;11671;49.990;8.028;2023-08-12T20:00:32;23.70;99.90
23010;DHT22;11671;49.990;8.028;2023-08-12T20:02:57;23.70;99.90
23010;DHT22;11671;49.990;8.028;2023-08-12T20:10:18;23.50;99.90
23010;DHT22;11671;49.990;8.028;2023-08-12T20:12:44;23.50;99.90
23010;DHT22;11671;49.990;8.028;2023-08-12T20:15:10;23.50;99.90
23010;DHT22;11671;49.990;8.028;2023-08-12T20:17:37;23.40;99.90
23010;DHT22;11671;49.990;8.028;2023-08-12T20:20:04;23.40;99.90
23010;DHT22;11671;49.990;8.028;2023-08-12T20:22:38;23.40;99.90
23010;DHT22;11671;49.990;8.028;2023-08-12T20:25:04;23.30;99.90
23010;DHT22;11671;49.990;8.028;2023-08-12T20:27:31;23.30;99.90
23010;DHT22;11671;49.990;8.028;2023-08-12T20:29:57;23.20;99.90
23010;DHT22;11671;49.990;8.028;2023-08-12T20:32:22;23.20;99.90
23010;DHT22;11671;49.990;8.028;2023-08-12T20:34:54;23.10;99.90
23010;DHT22;11671;49.990;8.028;2023-08-12T20:37:20;23.00;99.90
23010;DHT22;11671;49.990;8.028;2023-08-12T20:39:45;23.00;99.90
23010;DHT22;11671;49.990;8.028;2023-08-12T20:42:11;23.00;99.90
23010;DHT22;11671;49.990;8.028;2023-08-12T20:44:36;22.90;99.90
23010;DHT22;11671;49.990;8.028;2023-08-12T20:47:02;22.80;99.90
23010;DHT22;11671;49.990;8.028;2023-08-12T20:49:28;22.70;99.90
23010;DHT22;11671;49.990;8.028;2023-08-12T20:51:53;22.70;99.90
23010;DHT22;11671;49.990;8.028;2023-08-12T20:54:19;22.60;99.90
23010;DHT22;11671;49.990;8.028;2023-08-12T20:56:44;22.60;99.90
23010;DHT22;11671;49.990;8.028;2023-08-12T20:59:10;22.60;99.90
23010;DHT22;11671;49.990;8.028;2023-08-12T21:01:36;22.60;99.90
23010;DHT22;11671;49.990;8.028;2023-08-12T21:04:01;22.60;99.90
23010;DHT22;11671;49.990;8.028;2023-08-12T21:06:27;22.60;99.90
23010;DHT22;11671;49.990;8.028;2023-08-12T21:08:52;22.60;99.90
23010;DHT22;11671;49.990;8.028;2023-08-12T21:11:18;22.60;99.90
23010;DHT22;11671;49.990;8.028;2023-08-12T21:13:43;22.60;99.90
23010;DHT22;11671;49.990;8.028;2023-08-12T21:16:09;22.60;99.90
23010;DHT22;11671;49.990;8.028;2023-08-12T21:18:35;22.60;99.90
23010;DHT22;11671;49.990;8.028;2023-08-12T21:21:00;22.60;99.90
23010;DHT22;11671;49.990;8.028;2023-08-12T21:23:26;22.60;99.90
23010;DHT22;11671;49.990;8.028;2023-08-12T21:25:51;22.70;99.90
23010;DHT22;11671;49.990;8.028;2023-08-12T21:28:17;22.60;99.90
23010;DHT22;11671;49.990;8.028;2023-08-12T21:30:43;22.70;99.90
23010;DHT22;11671;49.990;8.028;2023-08-12T21:33:08;22.70;99.90
23010;DHT22;11671;49.990;8.028;2023-08-12T21:35:34;22.80;99.90
23010;DHT22;11671;49.990;8.028;2023-08-12T21:37:59;22.80;99.90
23010;DHT22;11671;49.990;8.028;2023-08-12T21:40:26;22.80;99.90
23010;DHT22;11671;49.990;8.028;2023-08-12T21:42:51;22.80;99.90
23010;DHT22;11671;49.990;8.028;2023-08-12T21:45:17;22.80;99.90
23010;DHT22;11671;49.990;8.028;2023-08-12T21:47:43;22.80;99.90
23010;DHT22;11671;49.990;8.028;2023-08-12T21:50:08;22.70;99.90
23010;DHT22;11671;49.990;8.028;2023-08-12T21:52:34;22.70;99.90
23010;DHT22;11671;49.990;8.028;2023-08-12T21:54:59;22.70;99.90
23010;DHT22;11671;49.990;8.028;2023-08-12T21:57:25;22.70;99.90
23010;DHT22;11671;49.990;8.028;2023-08-12T21:59:50;22.70;99.90
23010;DHT22;11671;49.990;8.028;2023-08-12T22:02:26;22.70;99.90
23010;DHT22;11671;49.990;8.028;2023-08-12T22:04:51;22.70;99.90
23010;DHT22;11671;49.990;8.028;2023-08-12T22:07:17;22.80;99.90
23010;DHT22;11671;49.990;8.028;2023-08-12T22:09:43;22.70;99.90
23010;DHT22;11671;49.990;8.028;2023-08-12T22:12:08;22.70;99.90
23010;DHT22;11671;49.990;8.028;2023-08-12T22:14:34;22.70;99.90
23010;DHT22;11671;49.990;8.028;2023-08-12T22:17:00;22.70;99.90
23010;DHT22;11671;49.990;8.028;2023-08-12T22:19:28;22.70;99.90
23010;DHT22;11671;49.990;8.028;2023-08-12T22:21:54;22.70;99.90
23010;DHT22;11671;49.990;8.028;2023-08-12T22:24:19;22.60;99.90
23010;DHT22;11671;49.990;8.028;2023-08-12T22:26:45;22.70;99.90
23010;DHT22;11671;49.990;8.028;2023-08-12T22:29:11;22.70;99.90
23010;DHT22;11671;49.990;8.028;2023-08-12T22:31:36;22.70;99.90
23010;DHT22;11671;49.990;8.028;2023-08-12T22:34:02;22.60;99.90
23010;DHT22;11671;49.990;8.028;2023-08-12T22:36:30;22.70;99.90
23010;DHT22;11671;49.990;8.028;2023-08-12T22:38:55;22.60;99.90
23010;DHT22;11671;49.990;8.028;2023-08-12T22:41:21;22.70;99.90
23010;DHT22;11671;49.990;8.028;2023-08-12T22:43:46;22.70;99.90
23010;DHT22;11671;49.990;8.028;2023-08-12T22:46:12;22.70;99.90
23010;DHT22;11671;49.990;8.028;2023-08-12T22:48:37;22.70;99.90
23010;DHT22;11671;49.990;8.028;2023-08-12T22:51:03;22.70;99.90
23010;DHT22;11671;49.990;8.028;2023-08-12T22:53:28;22.70;99.90
23010;DHT22;11671;49.990;8.028;2023-08-12T22:55:54;22.80;99.90
23010;DHT22;11671;49.990;8.028;2023-08-12T22:58:19;22.80;99.90
23010;DHT22;11671;49.990;8.028;2023-08-12T23:00:45;22.80;99.90
23010;DHT22;11671;49.990;8.028;2023-08-12T23:03:10;22.80;99.90
23010;DHT22;11671;49.990;8.028;2023-08-12T23:05:36;22.80;99.90
23010;DHT22;11671;49.990;8.028;2023-08-12T23:08:01;22.80;99.90
23010;DHT22;11671;49.990;8.028;2023-08-12T23:10:27;22.80;99.90
23010;DHT22;11671;49.990;8.028;2023-08-12T23:12:52;22.80;99.90
23010;DHT22;11671;49.990;8.028;2023-08-12T23:15:18;22.80;99.90
23010;DHT22;11671;49.990;8.028;2023-08-12T23:17:43;22.80;99.90
23010;DHT22;11671;49.990;8.028;2023-08-12T23:20:09;22.80;99.90